Time;durP1;ratioP1;P1;durP2;ratioP2;P2;SDS_P1;SDS_P2;PMS_P1;PMS_P2;Temp;Humidity;BMP_temperature;BMP_pressure;BME280_temperature;BME280_humidity;BME280_pressure;Samples;Min_cycle;Max_cycle;Signal;HPM_P1;HPM_P2
2021/06/10 00:01:47;;;;;;;10.57;5.68;;;;;;;;;;5110778;28;20164;-71
2021/06/10 00:04:13;;;;;;;9.73;6.15;;;;;;;;;;5110754;28;20024;-71
2021/06/10 00:06:39;;;;;;;8.23;5.32;;;;;;;;;;5110944;28;20035;-71
2021/06/10 00:09:05;;;;;;;9.23;6.25;;;;;;;;;;5111204;28;20402;-72
2021/06/10 00:11:32;;;;;;;9.18;6.32;;;;;;;;;;5111272;28;20034;-70
2021/06/10 00:13:58;;;;;;;9.73;5.55;;;;;;;;;;5111187;28;20490;-68
2021/06/10 00:16:24;;;;;;;8.50;5.47;;;;;;;;;;5090896;28;20059;-70
2021/06/10 00:18:51;;;;;;;8.90;6.15;;;;;;;;;;5090262;28;20077;-71
2021/06/10 00:21:18;;;;;;;9.50;5.45;;;;;;;;;;5090432;28;20505;-71
2021/06/10 00:23:44;;;;;;;7.82;5.05;;;;;;;;;;5089678;28;20500;-70
2021/06/10 00:26:10;;;;;;;8.30;5.20;;;;;;;;;;5089363;28;20028;-71
2021/06/10 00:28:36;;;;;;;9.77;6.28;;;;;;;;;;5089569;28;20605;-70
2021/06/10 00:31:03;;;;;;;7.53;5.28;;;;;;;;;;5102302;28;20036;-71
2021/06/10 00:33:29;;;;;;;9.27;5.50;;;;;;;;;;5107827;28;20088;-70
2021/06/10 00:35:55;;;;;;;9.18;5.55;;;;;;;;;;5110213;28;20032;-71
2021/06/10 00:38:21;;;;;;;8.70;5.95;;;;;;;;;;5109725;28;20035;-70
2021/06/10 00:40:47;;;;;;;11.85;5.88;;;;;;;;;;5109834;28;20055;-71
2021/06/10 00:43:14;;;;;;;9.57;6.60;;;;;;;;;;5110020;28;20034;-71
2021/06/10 00:45:40;;;;;;;9.32;6.88;;;;;;;;;;5109611;28;20031;-71
2021/06/10 00:48:06;;;;;;;10.07;6.60;;;;;;;;;;5109437;28;20026;-71
2021/06/10 00:50:34;;;;;;;8.38;5.40;;;;;;;;;;5109558;28;20034;-70
2021/06/10 00:53:00;;;;;;;10.15;6.63;;;;;;;;;;5109576;28;20027;-71
2021/06/10 00:55:26;;;;;;;7.97;5.97;;;;;;;;;;5096270;28;20644;-70
2021/06/10 00:57:52;;;;;;;8.77;5.90;;;;;;;;;;5089103;28;20024;-68
2021/06/10 01:00:19;;;;;;;10.25;6.70;;;;;;;;;;5089200;28;20035;-71
2021/06/10 01:02:45;;;;;;;8.90;5.43;;;;;;;;;;5098535;28;20106;-70
2021/06/10 01:05:11;;;;;;;9.23;6.68;;;;;;;;;;5108800;28;20028;-71
2021/06/10 01:08:13;;;;;;;6.38;4.97;;;;;;;;;;5109317;28;20122;-71
2021/06/10 01:10:47;;;;;;;7.35;5.03;;;;;;;;;;5025710;28;20063;-71
2021/06/10 01:13:13;;;;;;;6.82;5.88;;;;;;;;;;5096959;28;20162;-72
2021/06/10 01:15:40;;;;;;;7.47;5.00;;;;;;;;;;5090832;28;20469;-71
2021/06/10 01:18:07;;;;;;;6.72;5.53;;;;;;;;;;5089467;28;20036;-71
2021/06/10 01:20:33;;;;;;;7.32;4.88;;;;;;;;;;5089143;28;20499;-70
2021/06/10 01:23:03;;;;;;;6.53;5.10;;;;;;;;;;5097021;28;20035;-71
2021/06/10 01:25:37;;;;;;;5.72;4.50;;;;;;;;;;5091118;28;20110;-71
2021/06/10 01:28:06;;;;;;;7.53;5.13;;;;;;;;;;5109682;28;20023;-71
2021/06/10 01:30:40;;;;;;;5.95;4.65;;;;;;;;;;5109529;28;20081;-70
2021/06/10 01:33:11;;;;;;;5.72;4.20;;;;;;;;;;5109550;28;20051;-71
2021/06/10 01:35:39;;;;;;;7.38;5.50;;;;;;;;;;5109508;28;20070;-70
2021/06/10 01:38:06;;;;;;;6.38;4.50;;;;;;;;;;5109383;28;20461;-71
2021/06/10 01:40:32;;;;;;;7.40;4.57;;;;;;;;;;5096754;28;20039;-71
2021/06/10 01:42:58;;;;;;;6.72;4.90;;;;;;;;;;5089189;28;20028;-72
2021/06/10 01:45:25;;;;;;;7.22;4.93;;;;;;;;;;5089060;28;20028;-71
2021/06/10 01:47:52;;;;;;;7.05;5.13;;;;;;;;;;5089133;28;20108;-70
2021/06/10 01:50:20;;;;;;;6.63;4.80;;;;;;;;;;5091301;28;20097;-72
2021/06/10 01:52:46;;;;;;;6.90;4.82;;;;;;;;;;5093076;28;20073;-71
2021/06/10 01:55:15;;;;;;;6.75;4.53;;;;;;;;;;5082708;28;20036;-70
2021/06/10 01:57:41;;;;;;;5.85;4.28;;;;;;;;;;5104535;28;20442;-70
2021/06/10 02:00:09;;;;;;;6.25;4.80;;;;;;;;;;5113437;28;20382;-71
2021/06/10 02:02:36;;;;;;;7.97;4.75;;;;;;;;;;5113141;28;20028;-70
2021/06/10 02:05:03;;;;;;;6.18;4.90;;;;;;;;;;5112825;28;20038;-71
2021/06/10 02:07:30;;;;;;;7.03;4.70;;;;;;;;;;5110705;28;20036;-68
2021/06/10 02:09:56;;;;;;;7.65;4.97;;;;;;;;;;5101437;28;20050;-71
2021/06/10 02:12:22;;;;;;;6.32;4.85;;;;;;;;;;5092832;28;20024;-69
2021/06/10 02:14:49;;;;;;;6.90;5.30;;;;;;;;;;5105148;28;20422;-71
2021/06/10 02:17:16;;;;;;;8.15;5.70;;;;;;;;;;5092563;28;20044;-70
2021/06/10 02:19:42;;;;;;;8.48;5.75;;;;;;;;;;5094180;28;20059;-71
2021/06/10 02:22:09;;;;;;;6.68;5.13;;;;;;;;;;5092474;28;20073;-69
2021/06/10 02:24:35;;;;;;;6.50;5.05;;;;;;;;;;5092096;28;20036;-70
2021/06/10 02:27:01;;;;;;;7.00;5.78;;;;;;;;;;5095880;28;20023;-71
2021/06/10 02:29:27;;;;;;;8.10;5.35;;;;;;;;;;5092199;28;20028;-70
2021/06/10 02:31:53;;;;;;;6.20;4.88;;;;;;;;;;5095179;28;20020;-69
2021/06/10 02:34:19;;;;;;;7.15;5.22;;;;;;;;;;5090366;28;20546;-71
2021/06/10 02:36:46;;;;;;;7.13;5.55;;;;;;;;;;5090208;28;20039;-70
2021/06/10 02:39:13;;;;;;;5.57;5.00;;;;;;;;;;5090219;28;20538;-70
2021/06/10 02:41:41;;;;;;;6.05;4.78;;;;;;;;;;5090506;28;20115;-72
2021/06/10 02:44:08;;;;;;;6.38;4.90;;;;;;;;;;5091016;28;20038;-71
2021/06/10 02:46:34;;;;;;;6.63;4.55;;;;;;;;;;5091993;28;20028;-70
2021/06/10 02:49:01;;;;;;;6.13;4.68;;;;;;;;;;5120649;27;20583;-71
2021/06/10 02:51:32;;;;;;;6.53;4.72;;;;;;;;;;5133101;27;20030;-68
2021/06/10 02:54:00;;;;;;;6.53;4.30;;;;;;;;;;5131952;27;20027;-71
2021/06/10 02:56:27;;;;;;;7.72;4.68;;;;;;;;;;5112273;28;20036;-71
2021/06/10 02:58:53;;;;;;;6.00;4.60;;;;;;;;;;5112270;28;20559;-71
2021/06/10 03:01:20;;;;;;;4.75;3.95;;;;;;;;;;5112218;28;20081;-70
2021/06/10 03:03:46;;;;;;;5.07;3.80;;;;;;;;;;5112009;28;20055;-70
2021/06/10 03:06:12;;;;;;;5.05;4.10;;;;;;;;;;5094646;28;20500;-72
2021/06/10 03:08:39;;;;;;;5.15;3.67;;;;;;;;;;5091689;28;20016;-71
2021/06/10 03:11:06;;;;;;;4.78;3.67;;;;;;;;;;5091895;28;20032;-71
2021/06/10 03:13:33;;;;;;;4.95;3.30;;;;;;;;;;5091839;28;20032;-71
2021/06/10 03:16:00;;;;;;;4.05;3.22;;;;;;;;;;5111432;28;20043;-69
2021/06/10 03:18:26;;;;;;;5.70;4.32;;;;;;;;;;5111504;28;20030;-71
2021/06/10 03:20:53;;;;;;;4.35;3.20;;;;;;;;;;5111214;28;20054;-70
2021/06/10 03:23:19;;;;;;;4.72;3.47;;;;;;;;;;5092560;28;20032;-71
2021/06/10 03:25:45;;;;;;;3.97;3.30;;;;;;;;;;5090881;28;20107;-71
2021/06/10 03:28:12;;;;;;;6.10;3.35;;;;;;;;;;5090969;28;20024;-71
2021/06/10 03:30:38;;;;;;;3.63;3.20;;;;;;;;;;5099933;28;20030;-68
2021/06/10 03:33:06;;;;;;;3.22;2.88;;;;;;;;;;5111068;28;20051;-70
2021/06/10 03:35:34;;;;;;;4.07;3.33;;;;;;;;;;5111904;28;20031;-72
2021/06/10 03:38:00;;;;;;;4.45;3.50;;;;;;;;;;5111227;28;20051;-71
2021/06/10 03:40:27;;;;;;;5.88;3.30;;;;;;;;;;5091376;28;20036;-72
2021/06/10 03:42:54;;;;;;;3.75;3.40;;;;;;;;;;5091442;28;20032;-71
2021/06/10 03:45:20;;;;;;;4.18;3.30;;;;;;;;;;5090978;28;20040;-71
2021/06/10 03:47:46;;;;;;;4.30;3.53;;;;;;;;;;5091006;28;20789;-72
2021/06/10 03:50:13;;;;;;;4.57;3.33;;;;;;;;;;5099348;28;20066;-68
2021/06/10 03:52:40;;;;;;;4.57;3.20;;;;;;;;;;5111250;28;20032;-70
2021/06/10 03:55:07;;;;;;;3.38;3.08;;;;;;;;;;5101201;28;20383;-70
2021/06/10 03:57:35;;;;;;;4.57;3.25;;;;;;;;;;5100329;28;20024;-69
2021/06/10 04:00:02;;;;;;;3.85;3.28;;;;;;;;;;5111203;28;20028;-71
2021/06/10 04:02:28;;;;;;;3.65;3.10;;;;;;;;;;5110900;28;20031;-70
2021/06/10 04:04:55;;;;;;;4.43;3.47;;;;;;;;;;5110311;28;20024;-70
2021/06/10 04:07:21;;;;;;;5.68;3.53;;;;;;;;;;5110369;28;20428;-69
2021/06/10 04:09:47;;;;;;;3.83;3.08;;;;;;;;;;5110449;28;20028;-71
2021/06/10 04:12:13;;;;;;;3.38;3.08;;;;;;;;;;5108876;28;20038;-70
2021/06/10 04:14:40;;;;;;;4.05;3.33;;;;;;;;;;5090082;28;20028;-70
2021/06/10 04:17:06;;;;;;;5.40;2.80;;;;;;;;;;5102656;28;20138;-70
2021/06/10 04:19:32;;;;;;;3.40;2.90;;;;;;;;;;5110419;28;20076;-70
2021/06/10 04:21:58;;;;;;;3.92;3.03;;;;;;;;;;5110659;28;20027;-70
2021/06/10 04:24:24;;;;;;;4.50;2.90;;;;;;;;;;5111123;28;20028;-70
2021/06/10 04:26:51;;;;;;;3.75;3.08;;;;;;;;;;5110610;28;20062;-71
2021/06/10 04:29:17;;;;;;;3.78;3.10;;;;;;;;;;5109761;28;20367;-70
2021/06/10 04:31:43;;;;;;;3.25;2.80;;;;;;;;;;5110540;28;20027;-71
2021/06/10 04:34:09;;;;;;;3.58;3.10;;;;;;;;;;5110438;28;20034;-70
2021/06/10 04:36:35;;;;;;;4.18;3.08;;;;;;;;;;5110413;28;20048;-70
2021/06/10 04:39:01;;;;;;;4.85;3.60;;;;;;;;;;5110196;28;20633;-71
2021/06/10 04:41:27;;;;;;;3.60;2.88;;;;;;;;;;5110082;28;20024;-70
2021/06/10 04:43:53;;;;;;;4.07;3.20;;;;;;;;;;5110162;28;20031;-71
2021/06/10 04:46:19;;;;;;;4.15;2.72;;;;;;;;;;5108051;28;20035;-71
2021/06/10 04:48:45;;;;;;;5.88;3.67;;;;;;;;;;5109489;28;20027;-71
2021/06/10 04:51:11;;;;;;;3.15;2.75;;;;;;;;;;5109866;28;20062;-71
2021/06/10 04:53:40;;;;;;;4.35;3.22;;;;;;;;;;5109520;28;20110;-71
2021/06/10 04:56:06;;;;;;;4.97;3.75;;;;;;;;;;5090430;28;20024;-70
2021/06/10 04:58:33;;;;;;;4.35;2.70;;;;;;;;;;5088709;28;20538;-70
2021/06/10 05:00:59;;;;;;;3.80;3.17;;;;;;;;;;5089182;28;20042;-70
2021/06/10 05:03:25;;;;;;;4.47;3.00;;;;;;;;;;5091485;28;20506;-70
2021/06/10 05:05:51;;;;;;;5.20;3.10;;;;;;;;;;5108855;28;20035;-70
2021/06/10 05:08:17;;;;;;;4.85;3.35;;;;;;;;;;5108706;28;20581;-71
2021/06/10 05:10:43;;;;;;;3.33;2.75;;;;;;;;;;5109450;28;20100;-71
2021/06/10 05:13:10;;;;;;;5.47;2.83;;;;;;;;;;5109406;28;20027;-70
2021/06/10 05:15:36;;;;;;;4.07;2.78;;;;;;;;;;5109620;28;20055;-71
2021/06/10 05:18:02;;;;;;;3.97;2.70;;;;;;;;;;5109300;28;20343;-70
2021/06/10 05:20:28;;;;;;;3.72;2.50;;;;;;;;;;5106925;28;20076;-71
2021/06/10 05:22:54;;;;;;;3.40;2.88;;;;;;;;;;5103892;28;20482;-71
2021/06/10 05:25:20;;;;;;;2.78;2.35;;;;;;;;;;5107983;28;20035;-72
2021/06/10 05:27:46;;;;;;;3.50;2.40;;;;;;;;;;5109672;28;20027;-72
2021/06/10 05:30:12;;;;;;;6.22;2.50;;;;;;;;;;5109905;28;20020;-72
2021/06/10 05:32:38;;;;;;;3.08;2.55;;;;;;;;;;5109832;28;20494;-69
2021/06/10 05:35:05;;;;;;;4.80;2.60;;;;;;;;;;5107974;28;20478;-71
2021/06/10 05:37:31;;;;;;;3.75;2.10;;;;;;;;;;5093691;28;20148;-72
2021/06/10 05:39:57;;;;;;;2.92;2.17;;;;;;;;;;5104097;28;20028;-70
2021/06/10 05:42:23;;;;;;;2.50;2.05;;;;;;;;;;5070576;28;20134;-71
2021/06/10 05:44:49;;;;;;;3.55;2.35;;;;;;;;;;5088952;28;20024;-70
2021/06/10 05:47:15;;;;;;;2.55;2.10;;;;;;;;;;5092566;28;20399;-71
2021/06/10 05:49:41;;;;;;;2.85;2.00;;;;;;;;;;5089123;28;20080;-71
2021/06/10 05:52:08;;;;;;;2.00;1.80;;;;;;;;;;5106734;28;20054;-70
2021/06/10 05:54:34;;;;;;;2.28;1.90;;;;;;;;;;5106212;28;20024;-72
2021/06/10 05:57:00;;;;;;;2.33;1.83;;;;;;;;;;5092254;28;20127;-72
2021/06/10 05:59:26;;;;;;;1.60;1.50;;;;;;;;;;5098211;28;20030;-71
2021/06/10 06:01:53;;;;;;;2.00;1.80;;;;;;;;;;5103774;28;20042;-71
2021/06/10 06:04:19;;;;;;;2.20;1.65;;;;;;;;;;5069753;28;20081;-70
2021/06/10 06:06:45;;;;;;;2.20;1.73;;;;;;;;;;5086772;28;20035;-69
2021/06/10 06:09:12;;;;;;;1.75;1.50;;;;;;;;;;5087046;28;20026;-71
2021/06/10 06:11:38;;;;;;;2.00;1.45;;;;;;;;;;5091705;28;20031;-71
2021/06/10 06:14:08;;;;;;;2.10;1.60;;;;;;;;;;5100235;28;20099;-71
2021/06/10 06:16:44;;;;;;;1.70;1.60;;;;;;;;;;5098208;28;20052;-71
2021/06/10 06:19:12;;;;;;;2.38;1.73;;;;;;;;;;5089116;28;20028;-71
2021/06/10 06:21:38;;;;;;;1.70;1.60;;;;;;;;;;5100823;28;20104;-71
2021/06/10 06:24:05;;;;;;;2.10;1.90;;;;;;;;;;5111679;28;20019;-72
2021/06/10 06:26:31;;;;;;;2.45;1.75;;;;;;;;;;5112120;28;20474;-71
2021/06/10 06:29:02;;;;;;;2.17;1.77;;;;;;;;;;5105153;28;20021;-71
2021/06/10 06:31:28;;;;;;;1.70;1.52;;;;;;;;;;5091547;28;20023;-71
2021/06/10 06:33:54;;;;;;;2.33;1.75;;;;;;;;;;5092047;28;20096;-72
2021/06/10 06:36:20;;;;;;;3.03;1.70;;;;;;;;;;5093650;28;20031;-72
2021/06/10 06:38:48;;;;;;;1.55;1.45;;;;;;;;;;5095711;28;20024;-72
2021/06/10 06:41:14;;;;;;;1.80;1.63;;;;;;;;;;5095478;28;20110;-71
2021/06/10 06:43:40;;;;;;;1.75;1.65;;;;;;;;;;5095569;28;20120;-71
2021/06/10 06:46:06;;;;;;;2.75;1.70;;;;;;;;;;5095986;28;20031;-72
2021/06/10 06:48:33;;;;;;;2.00;1.70;;;;;;;;;;5095474;28;20513;-73
2021/06/10 06:51:00;;;;;;;1.80;1.60;;;;;;;;;;5097331;28;20107;-72
2021/06/10 06:53:29;;;;;;;1.67;1.58;;;;;;;;;;5115733;28;20445;-73
2021/06/10 06:55:55;;;;;;;3.15;1.73;;;;;;;;;;5112950;28;20073;-72
2021/06/10 06:58:21;;;;;;;1.67;1.58;;;;;;;;;;5102213;28;20028;-71
2021/06/10 07:00:47;;;;;;;1.90;1.75;;;;;;;;;;5106034;28;20073;-68
2021/06/10 07:03:14;;;;;;;1.88;1.73;;;;;;;;;;5111253;28;20448;-70
2021/06/10 07:05:40;;;;;;;1.75;1.60;;;;;;;;;;5092562;28;20070;-71
2021/06/10 07:08:06;;;;;;;3.55;1.63;;;;;;;;;;5103636;28;20035;-69
2021/06/10 07:10:32;;;;;;;2.00;1.80;;;;;;;;;;5110014;28;20428;-71
2021/06/10 07:12:58;;;;;;;2.08;1.88;;;;;;;;;;5092803;28;20104;-71
2021/06/10 07:15:24;;;;;;;2.50;1.83;;;;;;;;;;5097873;28;20028;-71
2021/06/10 07:17:50;;;;;;;2.25;1.80;;;;;;;;;;5110720;28;20059;-72
2021/06/10 07:20:16;;;;;;;2.03;1.83;;;;;;;;;;5107678;28;20030;-71
2021/06/10 07:22:43;;;;;;;3.22;1.80;;;;;;;;;;5097642;28;20032;-70
2021/06/10 07:25:09;;;;;;;2.58;1.65;;;;;;;;;;5101575;28;20110;-73
2021/06/10 07:27:36;;;;;;;2.00;1.80;;;;;;;;;;5108831;28;20403;-72
2021/06/10 07:30:03;;;;;;;2.20;1.92;;;;;;;;;;5091488;28;20028;-71
2021/06/10 07:32:29;;;;;;;2.47;1.95;;;;;;;;;;5103304;28;20446;-71
2021/06/10 07:34:55;;;;;;;1.95;1.70;;;;;;;;;;5111711;28;20099;-71
2021/06/10 07:37:21;;;;;;;3.17;2.08;;;;;;;;;;5107105;28;20024;-71
2021/06/10 07:39:47;;;;;;;2.00;1.73;;;;;;;;;;5111644;28;20035;-71
2021/06/10 07:42:13;;;;;;;2.38;1.70;;;;;;;;;;5109890;28;20331;-69
2021/06/10 07:44:39;;;;;;;4.68;2.00;;;;;;;;;;5111430;28;20027;-72
2021/06/10 07:47:06;;;;;;;2.88;1.92;;;;;;;;;;5106745;28;20032;-72
2021/06/10 07:49:35;;;;;;;4.30;2.25;;;;;;;;;;5097044;28;20462;-71
2021/06/10 07:52:02;;;;;;;2.38;1.73;;;;;;;;;;5111320;28;20020;-73
2021/06/10 07:54:28;;;;;;;3.00;2.10;;;;;;;;;;5101290;28;20032;-71
2021/06/10 07:56:54;;;;;;;2.83;2.38;;;;;;;;;;5109290;28;20035;-71
2021/06/10 07:59:27;;;;;;;4.13;1.98;;;;;;;;;;5109429;28;20055;-70
2021/06/10 08:01:54;;;;;;;2.38;2.13;;;;;;;;;;5102874;28;20079;-71
2021/06/10 08:04:20;;;;;;;2.65;2.17;;;;;;;;;;5080703;28;20036;-72
2021/06/10 08:06:47;;;;;;;3.08;2.33;;;;;;;;;;5105539;28;20031;-72
2021/06/10 08:09:13;;;;;;;2.60;2.40;;;;;;;;;;5108943;28;20035;-71
2021/06/10 08:11:40;;;;;;;6.88;2.30;;;;;;;;;;5099317;28;20024;-71
2021/06/10 08:14:06;;;;;;;3.65;2.20;;;;;;;;;;5100593;28;20038;-72
2021/06/10 08:16:32;;;;;;;2.75;2.05;;;;;;;;;;5091514;28;20113;-71
2021/06/10 08:18:59;;;;;;;2.85;2.42;;;;;;;;;;5080150;28;20525;-72
2021/06/10 08:21:25;;;;;;;2.75;2.10;;;;;;;;;;5107471;28;20031;-71
2021/06/10 08:23:51;;;;;;;2.30;2.10;;;;;;;;;;5093844;28;20069;-72
2021/06/10 08:26:17;;;;;;;2.70;2.35;;;;;;;;;;5090393;28;20028;-73
2021/06/10 08:28:44;;;;;;;2.95;2.10;;;;;;;;;;5092119;28;20032;-71
2021/06/10 08:31:10;;;;;;;2.50;2.30;;;;;;;;;;5097274;28;20031;-70
2021/06/10 08:33:37;;;;;;;3.63;2.17;;;;;;;;;;5098589;28;20447;-73
2021/06/10 08:36:06;;;;;;;2.50;2.10;;;;;;;;;;5089991;28;20060;-71
2021/06/10 08:38:33;;;;;;;2.40;1.98;;;;;;;;;;5090252;28;20394;-72
2021/06/10 08:40:59;;;;;;;2.90;2.40;;;;;;;;;;5093541;28;20024;-72
2021/06/10 08:43:25;;;;;;;2.78;2.05;;;;;;;;;;5094294;28;20032;-72
2021/06/10 08:45:56;;;;;;;3.42;2.20;;;;;;;;;;5094525;28;20035;-72
2021/06/10 08:48:22;;;;;;;2.40;2.00;;;;;;;;;;5101969;28;20027;-71
2021/06/10 08:50:50;;;;;;;2.40;2.20;;;;;;;;;;5100330;28;20066;-72
2021/06/10 08:53:16;;;;;;;2.72;2.20;;;;;;;;;;5094421;28;20241;-72
2021/06/10 08:55:42;;;;;;;2.45;2.25;;;;;;;;;;5093369;28;20062;-72
2021/06/10 08:58:08;;;;;;;2.17;1.98;;;;;;;;;;5104273;28;20036;-72
2021/06/10 09:00:35;;;;;;;3.88;2.20;;;;;;;;;;5102065;28;20031;-71
2021/06/10 09:03:02;;;;;;;2.65;1.98;;;;;;;;;;5096873;28;20085;-69
2021/06/10 09:05:29;;;;;;;2.25;2.05;;;;;;;;;;5093841;28;20028;-73
2021/06/10 09:07:56;;;;;;;4.60;2.30;;;;;;;;;;5071741;28;20020;-70
2021/06/10 09:10:24;;;;;;;2.60;2.17;;;;;;;;;;5091536;28;20062;-72
2021/06/10 09:12:52;;;;;;;2.90;2.60;;;;;;;;;;5104053;28;20116;-72
2021/06/10 09:15:18;;;;;;;2.35;2.08;;;;;;;;;;5089915;28;20039;-71
2021/06/10 09:17:45;;;;;;;2.10;1.90;;;;;;;;;;5100228;28;20048;-70
2021/06/10 09:20:23;;;;;;;2.38;2.17;;;;;;;;;;5099338;28;20032;-69
2021/06/10 09:22:54;;;;;;;2.50;2.30;;;;;;;;;;5096220;28;20035;-71
2021/06/10 09:25:22;;;;;;;4.30;2.30;;;;;;;;;;5078145;28;20057;-71
2021/06/10 09:27:52;;;;;;;4.90;2.10;;;;;;;;;;5108019;28;20035;-70
2021/06/10 09:30:32;;;;;;;2.80;2.40;;;;;;;;;;5105619;28;20027;-72
2021/06/10 09:33:00;;;;;;;2.42;2.22;;;;;;;;;;5107779;28;20098;-72
2021/06/10 09:35:27;;;;;;;2.50;2.30;;;;;;;;;;5105598;28;20043;-71
2021/06/10 09:37:57;;;;;;;3.65;2.40;;;;;;;;;;5109574;28;20035;-70
2021/06/10 09:40:24;;;;;;;2.42;2.22;;;;;;;;;;5106787;28;20042;-71
2021/06/10 09:42:50;;;;;;;3.35;2.10;;;;;;;;;;5097907;28;20059;-72
2021/06/10 09:45:20;;;;;;;2.90;2.05;;;;;;;;;;5091037;28;20054;-72
2021/06/10 09:47:49;;;;;;;2.78;2.33;;;;;;;;;;5099170;28;20028;-73
2021/06/10 09:50:23;;;;;;;2.75;2.30;;;;;;;;;;5097209;28;20171;-72
2021/06/10 09:52:50;;;;;;;2.88;2.50;;;;;;;;;;5099368;28;20036;-72
2021/06/10 09:55:33;;;;;;;2.05;1.95;;;;;;;;;;5095267;28;20024;-72
2021/06/10 09:58:07;;;;;;;3.35;2.10;;;;;;;;;;5102587;28;20076;-73
2021/06/10 10:00:33;;;;;;;2.40;2.17;;;;;;;;;;5107100;28;20565;-74
2021/06/10 10:02:59;;;;;;;2.92;2.53;;;;;;;;;;5106670;28;20107;-70
2021/06/10 10:05:26;;;;;;;7.50;2.65;;;;;;;;;;5107432;28;20122;-71
2021/06/10 10:07:53;;;;;;;2.53;2.33;;;;;;;;;;5084590;28;20385;-73
2021/06/10 10:10:20;;;;;;;2.88;2.50;;;;;;;;;;5105269;28;20034;-72
2021/06/10 10:12:48;;;;;;;3.38;2.53;;;;;;;;;;5098717;28;20064;-72
2021/06/10 10:15:14;;;;;;;2.92;2.60;;;;;;;;;;5092819;28;20024;-72
2021/06/10 10:17:41;;;;;;;3.78;3.30;;;;;;;;;;5092830;28;20695;-71
2021/06/10 10:20:09;;;;;;;4.07;2.58;;;;;;;;;;5096180;28;20126;-71
2021/06/10 10:22:36;;;;;;;2.55;2.35;;;;;;;;;;5096827;28;20064;-70
2021/06/10 10:25:03;;;;;;;8.25;2.97;;;;;;;;;;5095947;28;20024;-72
2021/06/10 10:27:30;;;;;;;2.90;2.60;;;;;;;;;;5097499;28;20058;-71
2021/06/10 10:29:56;;;;;;;2.92;2.63;;;;;;;;;;5105870;28;20521;-72
2021/06/10 10:32:23;;;;;;;2.95;2.65;;;;;;;;;;5110125;28;20027;-73
2021/06/10 10:34:49;;;;;;;3.63;2.78;;;;;;;;;;5103460;28;20034;-68
2021/06/10 10:37:23;;;;;;;3.97;3.20;;;;;;;;;;5074281;28;20047;-72
2021/06/10 10:39:52;;;;;;;2.97;2.53;;;;;;;;;;5099629;28;20493;-72
2021/06/10 10:42:25;;;;;;;3.33;2.60;;;;;;;;;;5092539;28;20024;-71
2021/06/10 10:44:54;;;;;;;6.10;3.00;;;;;;;;;;5092846;28;20043;-71
2021/06/10 10:47:20;;;;;;;3.20;2.90;;;;;;;;;;5092530;28;20075;-71
2021/06/10 10:49:48;;;;;;;3.28;2.80;;;;;;;;;;5075083;28;20028;-71
2021/06/10 10:52:14;;;;;;;3.65;3.35;;;;;;;;;;5108760;28;20117;-73
2021/06/10 10:54:40;;;;;;;3.20;2.72;;;;;;;;;;5103130;28;20502;-73
2021/06/10 10:57:07;;;;;;;3.65;3.08;;;;;;;;;;5108992;28;20043;-70
2021/06/10 10:59:41;;;;;;;7.30;4.47;;;;;;;;;;5112410;28;20023;-73
2021/06/10 11:02:08;;;;;;;4.38;2.95;;;;;;;;;;5108822;28;20039;-71
2021/06/10 11:04:53;;;;;;;2.97;2.67;;;;;;;;;;5104853;28;20031;-74
2021/06/10 11:07:34;;;;;;;4.15;2.58;;;;;;;;;;5101759;28;20115;-73
2021/06/10 11:10:01;;;;;;;3.40;2.90;;;;;;;;;;5095487;28;20027;-73
2021/06/10 11:12:43;;;;;;;4.70;2.42;;;;;;;;;;5110035;28;20030;-73
2021/06/10 11:15:34;;;;;;;3.47;2.97;;;;;;;;;;5104949;28;20335;-74
2021/06/10 11:18:06;;;;;;;3.63;3.00;;;;;;;;;;5097602;28;20028;-74
2021/06/10 11:20:39;;;;;;;3.38;2.95;;;;;;;;;;5103666;28;20024;-74
2021/06/10 11:23:26;;;;;;;4.30;2.97;;;;;;;;;;5096044;28;21600;-73
2021/06/10 11:25:53;;;;;;;3.42;3.08;;;;;;;;;;5108175;28;20057;-72
2021/06/10 11:28:20;;;;;;;3.78;2.70;;;;;;;;;;5091239;28;20051;-72
2021/06/10 11:30:47;;;;;;;3.75;2.83;;;;;;;;;;5095119;28;20082;-73
2021/06/10 11:33:13;;;;;;;3.58;3.05;;;;;;;;;;5093463;28;20433;-71
2021/06/10 11:35:42;;;;;;;3.45;2.80;;;;;;;;;;5096952;28;20620;-75
2021/06/10 11:38:12;;;;;;;3.60;2.90;;;;;;;;;;5099507;28;20116;-73
2021/06/10 11:40:39;;;;;;;7.43;2.67;;;;;;;;;;5101611;28;20039;-72
2021/06/10 11:43:10;;;;;;;5.88;2.83;;;;;;;;;;5105657;28;20238;-73
2021/06/10 11:45:36;;;;;;;5.40;3.03;;;;;;;;;;5111197;28;20079;-70
2021/06/10 11:48:03;;;;;;;3.08;2.70;;;;;;;;;;5110550;28;20034;-72
2021/06/10 11:50:30;;;;;;;4.15;3.17;;;;;;;;;;5109690;28;20024;-72
2021/06/10 11:52:57;;;;;;;3.72;2.70;;;;;;;;;;5106257;28;20118;-70
2021/06/10 11:55:26;;;;;;;3.53;2.72;;;;;;;;;;5100302;28;20066;-74
2021/06/10 11:57:54;;;;;;;3.55;2.63;;;;;;;;;;5101231;28;20111;-73
2021/06/10 12:00:25;;;;;;;3.00;2.70;;;;;;;;;;5103389;28;20041;-72
2021/06/10 12:02:54;;;;;;;2.90;2.60;;;;;;;;;;5108900;28;20038;-73
2021/06/10 12:05:21;;;;;;;3.20;2.60;;;;;;;;;;5096040;28;20031;-72
2021/06/10 12:07:47;;;;;;;3.75;2.50;;;;;;;;;;5110029;28;20069;-73
2021/06/10 12:10:21;;;;;;;2.97;2.50;;;;;;;;;;5091398;28;20031;-73
2021/06/10 12:12:48;;;;;;;5.82;2.58;;;;;;;;;;5090517;28;20020;-72
2021/06/10 12:15:24;;;;;;;4.07;2.60;;;;;;;;;;5090430;28;20032;-73
2021/06/10 12:17:54;;;;;;;4.22;2.60;;;;;;;;;;5097554;28;20659;-73
2021/06/10 12:20:22;;;;;;;3.38;2.65;;;;;;;;;;5092290;28;20023;-73
2021/06/10 12:22:50;;;;;;;3.03;2.53;;;;;;;;;;5091962;28;20107;-73
2021/06/10 12:25:23;;;;;;;4.25;3.33;;;;;;;;;;5091721;28;20027;-73
2021/06/10 12:27:50;;;;;;;3.25;2.95;;;;;;;;;;5106465;28;20830;-73
2021/06/10 12:30:23;;;;;;;4.97;3.17;;;;;;;;;;5097341;28;20478;-73
2021/06/10 12:32:49;;;;;;;2.85;2.55;;;;;;;;;;5101676;28;20479;-70
2021/06/10 12:35:18;;;;;;;3.40;3.10;;;;;;;;;;5097926;28;20078;-73
2021/06/10 12:37:48;;;;;;;4.53;3.30;;;;;;;;;;5094416;28;20077;-72
2021/06/10 12:40:15;;;;;;;4.80;3.38;;;;;;;;;;5093468;28;20027;-74
2021/06/10 12:42:41;;;;;;;4.60;3.25;;;;;;;;;;5094395;28;20030;-73
2021/06/10 12:45:25;;;;;;;3.85;2.90;;;;;;;;;;5109875;28;20028;-72
2021/06/10 12:47:51;;;;;;;3.47;3.17;;;;;;;;;;5105180;28;20032;-73
2021/06/10 12:50:21;;;;;;;4.72;3.08;;;;;;;;;;5096917;28;20064;-73
2021/06/10 12:52:47;;;;;;;3.20;2.72;;;;;;;;;;5094774;28;20182;-73
2021/06/10 12:55:15;;;;;;;4.13;2.72;;;;;;;;;;5101614;28;20015;-71
2021/06/10 12:57:41;;;;;;;3.13;2.55;;;;;;;;;;5095554;28;20111;-71
2021/06/10 13:00:10;;;;;;;3.33;2.97;;;;;;;;;;5093197;28;20482;-70
2021/06/10 13:02:37;;;;;;;4.05;2.60;;;;;;;;;;5101344;28;20497;-73
2021/06/10 13:05:12;;;;;;;4.03;2.92;;;;;;;;;;5094537;28;20030;-71
2021/06/10 13:07:39;;;;;;;3.90;2.50;;;;;;;;;;5090700;28;20028;-68
2021/06/10 13:10:06;;;;;;;2.72;2.17;;;;;;;;;;5094302;28;20019;-70
2021/06/10 13:12:33;;;;;;;3.63;2.40;;;;;;;;;;5098599;28;20028;-72
2021/06/10 13:15:05;;;;;;;2.42;2.22;;;;;;;;;;5097529;28;20451;-71
2021/06/10 13:17:44;;;;;;;2.72;2.45;;;;;;;;;;5095442;28;20071;-69
2021/06/10 13:20:11;;;;;;;4.65;2.78;;;;;;;;;;5098871;28;20032;-72
2021/06/10 13:22:37;;;;;;;3.08;2.72;;;;;;;;;;5100354;28;20027;-71
2021/06/10 13:25:10;;;;;;;4.43;2.58;;;;;;;;;;5107262;28;20054;-73
2021/06/10 13:27:36;;;;;;;3.00;2.50;;;;;;;;;;5094742;28;20031;-72
2021/06/10 13:30:03;;;;;;;2.95;2.50;;;;;;;;;;5106607;28;20190;-70
2021/06/10 13:32:34;;;;;;;2.38;2.17;;;;;;;;;;5095810;28;20041;-70
2021/06/10 13:35:13;;;;;;;2.38;2.17;;;;;;;;;;5099366;28;20046;-74
2021/06/10 13:37:39;;;;;;;4.28;2.60;;;;;;;;;;5105777;28;20031;-75
2021/06/10 13:40:06;;;;;;;2.67;2.45;;;;;;;;;;5097787;28;20046;-72
2021/06/10 13:42:33;;;;;;;3.08;2.53;;;;;;;;;;5094995;28;20055;-73
2021/06/10 13:44:59;;;;;;;3.53;2.40;;;;;;;;;;5106265;28;20035;-73
2021/06/10 13:47:25;;;;;;;4.07;2.53;;;;;;;;;;5102535;28;20586;-73
2021/06/10 13:49:52;;;;;;;2.70;2.50;;;;;;;;;;5097455;28;20556;-73
2021/06/10 13:52:18;;;;;;;2.75;2.47;;;;;;;;;;5074594;28;20023;-72
2021/06/10 13:54:44;;;;;;;3.00;2.70;;;;;;;;;;5099325;28;20031;-71
2021/06/10 13:57:12;;;;;;;2.63;2.40;;;;;;;;;;5100763;28;20023;-73
2021/06/10 13:59:38;;;;;;;2.83;2.30;;;;;;;;;;5102696;28;20081;-72
2021/06/10 14:02:04;;;;;;;2.97;2.70;;;;;;;;;;5092847;28;20110;-72
2021/06/10 14:04:30;;;;;;;3.22;2.40;;;;;;;;;;5109277;28;20371;-72
2021/06/10 14:06:58;;;;;;;4.60;2.70;;;;;;;;;;5092362;28;20131;-71
2021/06/10 14:09:24;;;;;;;2.70;2.47;;;;;;;;;;5089515;28;20046;-73
2021/06/10 14:11:50;;;;;;;3.13;2.83;;;;;;;;;;5105777;28;20057;-72
2021/06/10 14:14:16;;;;;;;3.03;2.72;;;;;;;;;;5105773;28;20370;-72
2021/06/10 14:16:43;;;;;;;2.78;2.47;;;;;;;;;;5109007;28;20108;-72
2021/06/10 14:19:13;;;;;;;3.38;2.50;;;;;;;;;;5102380;28;20540;-74
2021/06/10 14:21:39;;;;;;;2.80;2.60;;;;;;;;;;5097245;28;20028;-73
2021/06/10 14:24:06;;;;;;;3.35;2.38;;;;;;;;;;5099226;28;20035;-73
2021/06/10 14:26:32;;;;;;;2.50;2.30;;;;;;;;;;5092528;28;20096;-72
2021/06/10 14:29:07;;;;;;;2.58;2.38;;;;;;;;;;5097500;28;20019;-73
2021/06/10 14:34:15;;;;;;;2.40;2.20;;;;;;;;;;5098726;28;20024;-72
2021/06/10 14:36:41;;;;;;;5.57;2.60;;;;;;;;;;5092325;28;20032;-71
2021/06/10 14:39:07;;;;;;;3.40;3.10;;;;;;;;;;5105352;28;20024;-72
2021/06/10 14:41:34;;;;;;;2.60;2.40;;;;;;;;;;5098343;28;20028;-70
2021/06/10 14:44:00;;;;;;;2.75;2.33;;;;;;;;;;5106549;28;20036;-73
2021/06/10 14:46:26;;;;;;;2.60;2.40;;;;;;;;;;5098548;28;20067;-72
2021/06/10 14:48:52;;;;;;;3.05;2.75;;;;;;;;;;5107126;28;20026;-69